Tozeur, Tunisia
Current Conditions -  °F | °C
As of 1:00 PM on Sunday 25 Jan 2015 (Local Time) from DTTZ Reporting Station
Scattered Clouds Scattered Clouds  
Wind Chill: 55°   Ceiling: Unl
Heat Index: 55°   Visibility: 6mi
Dew Point: 27°   Wind: 22mph
Humidity: 33%   Direction: 260°W
Pressure: 29.97"   Gusts: NA
Location:  33.92°N, 8.13°E
Report Text: DTTZ 251200Z 26019KT 9999 SCT030 13/M03 Q1015 NOSIG
Loading
Personal Weather Stations






























Interactive Weather Map New forecast layout! Learn more

10-Day Weather Forecast

Advertisements
Track Severe Weather on mobile